地図

経路データ

SID SEASON NUMBER BASIN SUBBASIN NAME ISO_TIME NATURE LAT LON WMO_WIND WMO_PRES WMO_AGENCY TRACK_TYPE DIST2LAND LANDFALL IFLAG USA_AGENCY USA_ATCF_ID USA_LAT USA_LON USA_RECORD USA_STATUS USA_WIND USA_PRES USA_SSHS USA_R34_NE USA_R34_SE USA_R34_SW USA_R34_NW USA_R50_NE USA_R50_SE USA_R50_SW USA_R50_NW USA_R64_NE USA_R64_SE USA_R64_SW USA_R64_NW USA_POCI USA_ROCI USA_RMW USA_EYE TOKYO_LAT TOKYO_LON TOKYO_GRADE TOKYO_WIND TOKYO_PRES TOKYO_R50_DIR TOKYO_R50_LONG TOKYO_R50_SHORT TOKYO_R30_DIR TOKYO_R30_LONG TOKYO_R30_SHORT TOKYO_LAND CMA_LAT CMA_LON CMA_CAT CMA_WIND CMA_PRES HKO_LAT HKO_LON HKO_CAT HKO_WIND HKO_PRES NEWDELHI_LAT NEWDELHI_LON NEWDELHI_GRADE NEWDELHI_WIND NEWDELHI_PRES NEWDELHI_CI NEWDELHI_DP NEWDELHI_POCI REUNION_LAT REUNION_LON REUNION_TYPE REUNION_WIND REUNION_PRES REUNION_TNUM REUNION_CI REUNION_RMW REUNION_R34_NE REUNION_R34_SE REUNION_R34_SW REUNION_R34_NW REUNION_R50_NE REUNION_R50_SE REUNION_R50_SW REUNION_R50_NW REUNION_R64_NE REUNION_R64_SE REUNION_R64_SW REUNION_R64_NW BOM_LAT BOM_LON BOM_TYPE BOM_WIND BOM_PRES BOM_TNUM BOM_CI BOM_RMW BOM_R34_NE BOM_R34_SE BOM_R34_SW BOM_R34_NW BOM_R50_NE BOM_R50_SE BOM_R50_SW BOM_R50_NW BOM_R64_NE BOM_R64_SE BOM_R64_SW BOM_R64_NW BOM_ROCI BOM_POCI BOM_EYE BOM_POS_METHOD BOM_PRES_METHOD NADI_LAT NADI_LON NADI_CAT NADI_WIND NADI_PRES WELLINGTON_LAT WELLINGTON_LON WELLINGTON_WIND WELLINGTON_PRES DS824_LAT DS824_LON DS824_STAGE DS824_WIND DS824_PRES TD9636_LAT TD9636_LON TD9636_STAGE TD9636_WIND TD9636_PRES TD9635_LAT TD9635_LON TD9635_WIND TD9635_PRES TD9635_ROCI NEUMANN_LAT NEUMANN_LON NEUMANN_CLASS NEUMANN_WIND NEUMANN_PRES MLC_LAT MLC_LON MLC_CLASS MLC_WIND MLC_PRES USA_GUST BOM_GUST BOM_GUST_PER REUNION_GUST REUNION_GUST_PER USA_SEAHGT USA_SEARAD_NE USA_SEARAD_SE USA_SEARAD_SW USA_SEARAD_NW STORM_SPEED STORM_DIR
1958263N13148 1958 84 WP MM IDA 1958-09-20 06:00:00 TS 13.4500 147.550 1006 tokyo main 1747 1736 _OO___________ -1 13.5000 147.600 2 1006 0 0 0 13.4000 147.500 0 1006 9 257
1958263N13148 1958 84 WP MM IDA 1958-09-20 09:00:00 TS 13.3496 147.115 main 1725 1714 _PP___________ -1 13.4572 147.133 2 1005 0 0 13.2420 147.098 0 1005 9 253
1958263N13148 1958 84 WP MM IDA 1958-09-20 12:00:00 TS 13.1900 146.660 1004 tokyo main 1714 1714 OOO______OOO__ jtwc_wp WP151958 13.1000 146.900 45 0 13.4000 146.500 2 1004 0 0 0 13.1000 146.500 1 29 1004 13.1000 146.900 TC 45 13.1000 146.900 2 45 13.1000 146.900 45 995 120 12 262
1958263N13148 1958 84 WP MM IDA 1958-09-20 15:00:00 TS 13.1867 145.851 main 1715 1715 PPP______PPP__ WP151958 13.2129 146.113 45 0 13.3280 145.615 2 997 0 0 12.9982 145.607 1 33 1002 13.2129 146.113 TC 45 13.2027 146.026 2 52 13.2129 146.113 45 994 120 16 272
1958263N13148 1958 84 WP MM IDA 1958-09-20 18:00:00 TS 13.2374 145.041 990 tokyo main 1723 1723 OOO______OPO__ jtwc_wp WP151958 13.3000 145.300 45 0 13.3000 144.700 9 990 0 0 0 13.0000 144.700 2 38 1000 13.3000 145.300 TC 45 13.2829 145.171 2 60 13.3000 145.300 45 994 120 15 275
1958263N13148 1958 84 WP MM IDA 1958-09-20 21:00:00 TS 13.3283 144.308 main 1743 1743 PPP______PPP__ WP151958 13.3374 144.450 60 0 13.4220 144.013 9 988 0 0 13.2143 144.128 2 53 994 13.3374 144.450 TC 60 13.3217 144.356 2 67 13.3374 144.450 60 993 150 14 274
1958263N13148 1958 84 WP MM IDA 1958-09-21 00:00:00 TS 13.3500 143.567 986 tokyo main 1767 1734 OOO______OOO__ jtwc_wp WP151958 13.3000 143.600 75 1 13.5000 143.400 9 986 0 0 0 13.4000 143.600 4 68 988 13.3000 143.600 TC 75 13.3000 143.600 3 75 13.3000 143.600 75 992 180 15 266
1958263N13148 1958 84 WP MM IDA 1958-09-21 03:00:00 TS 13.2202 142.783 main 1734 1701 PPP______PPP__ WP151958 13.1651 142.732 82 1 13.3224 142.735 9 986 0 0 13.2953 142.850 4 68 988 13.1651 142.732 TC 82 13.2080 142.918 3 81 13.1651 142.732 82 991 210 15 258
1958263N13148 1958 84 WP MM IDA 1958-09-21 06:00:00 TS 13.0452 142.084 987 tokyo main 1690 1658 OOO______OPO__ jtwc_wp WP151958 13.0000 142.000 90 2 13.1000 142.100 9 987 0 0 0 13.1000 142.100 4 68 988 13.0000 142.000 TC 90 13.0713 142.302 3 87 13.0000 142.000 90 991 240 12 256
1958263N13148 1958 84 WP MM IDA 1958-09-21 09:00:00 TS 12.9266 141.572 main 1658 1642 PPP______PPP__ WP151958 12.8770 141.555 95 2 13.0274 141.520 9 987 0 0 12.9772 141.513 4 68 988 12.8770 141.555 TC 95 12.9239 141.734 3 93 12.8770 141.555 95 991 240 9 258
1958263N13148 1958 84 WP MM IDA 1958-09-21 12:00:00 TS 12.8500 141.133 987 tokyo main 1638 1613 OOO______OOO__ jtwc_wp WP151958 12.8000 141.200 100 3 13.0000 141.000 9 987 0 0 0 12.9000 141.000 4 68 988 12.8000 141.200 TC 100 12.8000 141.200 4 100 12.8000 141.200 100 991 240 9 264
1958263N13148 1958 84 WP MM IDA 1958-09-21 15:00:00 TS 12.8274 140.632 main 1609 1580 PPP______PPP__ WP151958 12.7925 140.715 100 3 12.9574 140.528 9 987 0 0 12.8999 140.478 4 68 988 12.7925 140.715 TC 100 12.7298 140.643 4 100 12.7925 140.715 100 990 240 10 268
1958263N13148 1958 84 WP MM IDA 1958-09-21 18:00:00 TS 12.8150 140.136 987 tokyo main 1569 1526 OOO______OPO__ jtwc_wp WP151958 12.8000 140.200 100 3 12.9000 140.100 9 987 0 0 0 12.9000 140.000 4 68 988 12.8000 140.200 TC 100 12.6898 140.118 4 100 12.8000 140.200 100 990 240 10 265
1958263N13148 1958 84 WP MM IDA 1958-09-21 21:00:00 TS 12.7524 139.661 main 1526 1471 PPP______PPP__ WP151958 12.7500 139.685 100 3 12.7849 139.692 9 987 0 0 12.7999 139.585 4 68 988 12.7500 139.685 TC 100 12.6799 139.634 4 100 12.7500 139.685 100 989 270 9 263
1958263N13148 1958 84 WP MM IDA 1958-09-22 00:00:00 TS 12.7000 139.217 987 tokyo main 1471 1428 OOO______OOO__ jtwc_wp WP151958 12.7000 139.200 100 3 12.7000 139.300 9 987 0 0 0 12.7000 139.200 4 68 988 12.7000 139.200 TC 100 12.7000 139.200 4 100 12.7000 139.200 100 989 300 8 265
1958263N13148 1958 84 WP MM IDA 1958-09-22 03:00:00 TS 12.6850 138.794 main 1428 1385 PPP______PPP__ WP151958 12.6700 138.762 100 3 12.7125 138.893 9 986 0 0 12.6700 138.778 4 68 987 12.6700 138.762 TC 100 12.7174 138.808 4 100 12.6700 138.762 100 988 330 8 272
1958263N13148 1958 84 WP MM IDA 1958-09-22 06:00:00 TS 12.7278 138.428 986 tokyo main 1385 1354 OOO______OPO__ jtwc_wp WP151958 12.7000 138.400 100 3 12.8000 138.500 9 986 0 0 0 12.7000 138.400 4 68 986 12.7000 138.400 TC 100 12.7671 138.467 4 100 12.7000 138.400 100 988 360 7 283
1958263N13148 1958 84 WP MM IDA 1958-09-22 09:00:00 TS 12.8346 138.127 main 1354 1335 PPP______PPP__ WP151958 12.8199 138.120 100 3 12.9275 138.113 9 983 0 0 12.7624 138.120 4 72 983 12.8199 138.120 TC 100 12.8582 138.168 4 100 12.8199 138.120 100 984 420 6 297
1958263N13148 1958 84 WP MM IDA 1958-09-22 12:00:00 TS 13.0000 137.883 981 tokyo main 1335 1315 OOO______OOO__ jtwc_wp WP151958 13.0000 137.900 100 3 13.1000 137.800 9 981 0 0 0 12.9000 137.900 4 77 980 13.0000 137.900 TC 100 13.0000 137.900 4 100 13.0000 137.900 100 980 480 6 308
1958263N13148 1958 84 WP MM IDA 1958-09-22 15:00:00 TS 13.1788 137.677 main 1317 1298 PPP______PPP__ WP151958 13.1774 137.700 100 3 13.2699 137.627 9 978 0 0 13.1200 137.692 4 82 976 13.1774 137.700 TC 100 13.1508 137.642 4 102 13.1774 137.700 100 975 480 6 317
1958263N13148 1958 84 WP MM IDA 1958-09-22 18:00:00 TS 13.4096 137.485 975 tokyo main 1300 1283 OOO______OPO__ jtwc_wp WP151958 13.4000 137.500 100 3 13.5000 137.500 9 975 0 0 0 13.4000 137.500 5 87 973 13.4000 137.500 TC 100 13.3573 137.412 4 105 13.4000 137.500 100 970 480 7 321
1958263N13148 1958 84 WP MM IDA 1958-09-22 21:00:00 TS 13.6867 137.258 main 1285 1261 PPP______PPP__ WP151958 13.6625 137.243 105 3 13.8275 137.315 9 967 0 0 13.6700 137.307 5 96 967 13.6625 137.243 TC 105 13.6352 137.201 4 107 13.6625 137.243 105 962 480 8 325
1958263N13148 1958 84 WP MM IDA 1958-09-23 00:00:00 TS 14.0333 137.033 960 tokyo main 1261 1247 OOO______OOO__ jtwc_wp WP151958 14.0000 137.000 110 3 14.2000 137.100 9 960 0 0 0 14.0000 137.100 6 106 962 14.0000 137.000 TC 110 14.0000 137.000 4 110 14.0000 137.000 110 955 480 9 331
1958263N13148 1958 84 WP MM IDA 1958-09-23 03:00:00 TS 14.4361 136.838 main 1247 1243 PPP______PPP__ WP151958 14.3974 136.850 115 4 14.5350 136.842 9 947 0 0 14.4050 136.850 6 116 951 14.3974 136.850 TC 115 14.4840 136.785 4 115 14.3974 136.850 115 947 450 10 337
1958263N13148 1958 84 WP MM IDA 1958-09-23 06:00:00 TS 14.9246 136.646 935 tokyo main 1237 1233 OOO______OPO__ jtwc_wp WP151958 14.9000 136.700 120 4 14.9000 136.600 9 935 0 0 0 14.9000 136.600 6 126 940 14.9000 136.700 TC 120 15.0475 136.578 4 120 14.9000 136.700 120 939 420 12 340
1958263N13148 1958 84 WP MM IDA 1958-09-23 09:00:00 TS 15.5141 136.429 main 1233 1233 PPP______PPP__ WP151958 15.5426 136.450 125 4 15.3199 136.450 9 915 0 0 15.5000 136.392 6 140 927 15.5426 136.450 TC 125 15.6372 136.382 4 125 15.5426 136.450 125 927 420 13 341
1958263N13148 1958 84 WP MM IDA 1958-09-23 12:00:00 TS 16.1167 136.217 896 tokyo main 1233 1231 OOO______OOO__ jtwc_wp WP151958 16.2000 136.200 130 4 15.8000 136.300 9 896 0 0 0 16.1000 136.200 6 155 915 16.2000 136.200 TC 130 16.2000 136.200 4 130 16.2000 136.200 130 916 420 12 341
1958263N13148 1958 84 WP MM IDA 1958-09-23 15:00:00 TS 16.6258 136.031 main 1233 1233 PPP______PPP__ WP151958 16.7449 136.035 130 4 16.3351 136.050 9 889 0 0 16.5650 135.992 6 174 902 16.7449 136.035 TC 130 16.6202 136.039 4 135 16.7449 136.035 130 901 420 10 341
1958263N13148 1958 84 WP MM IDA 1958-09-23 18:00:00 TS 17.0854 135.865 882 tokyo main 1246 1236 OOO______OPO__ jtwc_wp WP151958 17.2000 135.900 130 4 16.9000 135.800 9 882 0 0 0 17.0000 135.800 6 194 890 17.2000 135.900 TC 130 17.0124 135.891 4 140 17.2000 135.900 130 887 420 9 341
1958263N13148 1958 84 WP MM IDA 1958-09-23 21:00:00 TS 17.4851 135.715 main 1246 1246 PPP______PPP__ WP151958 17.5200 135.757 140 5 17.4349 135.635 9 880 0 0 17.4925 135.635 6 203 884 17.5200 135.757 TC 140 17.4234 135.748 4 145 17.5200 135.757 140 881 420 9 341
1958263N13148 1958 84 WP MM IDA 1958-09-24 00:00:00 TS 17.9333 135.567 878 tokyo main 1258 1254 OOO______OOO__ jtwc_wp WP151958 17.9000 135.600 150 5 18.0000 135.500 9 878 0 0 0 18.0000 135.500 6 213 878 17.9000 135.600 TC 150 17.9000 135.600 4 150 17.9000 135.600 150 875 420 11 344
1958263N13148 1958 84 WP MM IDA 1958-09-24 03:00:00 TS 18.5424 135.397 main 1274 1274 PPP______PPP__ WP151958 18.5550 135.400 155 5 18.6275 135.365 9 877 0 0 18.4625 135.407 6 213 878 18.5550 135.400 TC 155 18.4992 135.409 4 156 18.5550 135.400 156 877 420 13 346
1958263N13148 1958 84 WP MM IDA 1958-09-24 06:00:00 TS 19.2280 135.219 877 tokyo main 1294 1294 OOO______OPO__ jtwc_wp WP151958 19.3000 135.200 160 5 19.3000 135.200 9 877 0 0 0 19.0000 135.300 6 213 878 19.3000 135.200 TC 160 19.1678 135.214 4 162 19.3000 135.200 162 880 420 14 346
1958263N13148 1958 84 WP MM IDA 1958-09-24 09:00:00 TS 19.9054 135.025 main 1312 1235 PPP______PPP__ WP151958 19.9500 135.027 167 5 19.9926 134.935 9 877 0 0 19.7126 135.093 6 213 879 19.9500 135.027 TC 167 19.8774 135.037 4 168 19.9500 135.027 168 882 450 14 346
1958263N13148 1958 84 WP MM IDA 1958-09-24 12:00:00 TS 20.6000 134.867 877 tokyo main 1235 1157 OOO______OOO__ jtwc_wp WP151958 20.6000 134.900 175 5 20.7000 134.700 9 877 0 0 0 20.5000 134.900 6 213 880 20.6000 134.900 TC 175 20.6000 134.900 4 175 20.6000 134.900 175 884 480 14 351
1958263N13148 1958 84 WP MM IDA 1958-09-24 15:00:00 TS 21.3029 134.781 main 1157 1084 PPP______PPP__ WP151958 21.2925 134.827 175 5 21.4149 134.605 9 877 0 0 21.2649 134.820 6 208 881 21.2925 134.827 TC 175 21.2601 134.780 4 175 21.2925 134.827 175 886 480 14 356
1958263N13148 1958 84 WP MM IDA 1958-09-24 18:00:00 TS 22.0054 134.752 878 tokyo main 1084 1007 OOO______OPO__ jtwc_wp WP151958 22.0000 134.800 175 5 22.1000 134.600 9 878 0 0 0 22.0000 134.800 6 204 883 22.0000 134.800 TC 175 21.9322 134.710 4 175 22.0000 134.800 175 888 480 14 358
1958263N13148 1958 84 WP MM IDA 1958-09-24 21:00:00 TS 22.6951 134.736 main 1007 950 PPP______PPP__ WP151958 22.7074 134.763 175 5 22.7300 134.635 9 880 0 0 22.6800 134.785 6 204 884 22.7074 134.763 TC 175 22.6382 134.710 4 175 22.7074 134.763 175 890 480 14 2
1958263N13148 1958 84 WP MM IDA 1958-09-25 00:00:00 TS 23.3667 134.783 883 tokyo main 940 894 OOO______OOO__ jtwc_wp WP151958 23.4000 134.800 175 5 23.3000 134.700 9 883 0 0 0 23.3000 134.800 6 204 885 23.4000 134.800 TC 175 23.4000 134.800 4 175 23.4000 134.800 175 892 480 13 7
1958263N13148 1958 84 WP MM IDA 1958-09-25 03:00:00 TS 23.9650 134.900 main 884 834 PPP______PPP__ WP151958 23.9824 134.941 175 5 23.7774 134.721 9 889 0 0 23.8425 134.842 6 199 890 23.9824 134.941 TC 175 24.2228 135.013 4 175 23.9824 134.941 175 895 480 13 13
1958263N13148 1958 84 WP MM IDA 1958-09-25 06:00:00 TS 24.6506 135.103 895 tokyo main 825 765 OOO______OPO__ jtwc_wp WP151958 24.7000 135.200 175 5 24.3000 134.800 9 895 0 0 0 24.4000 134.900 6 194 895 24.7000 135.200 TC 175 25.1036 135.315 4 175 24.7000 135.200 175 898 480 17 16
1958263N13148 1958 84 WP MM IDA 1958-09-25 09:00:00 TS 25.5598 135.398 main 755 688 PPP______PPP__ WP151958 25.7754 135.606 175 5 24.9448 134.976 9 902 0 0 25.0550 134.935 6 189 903 25.7754 135.606 TC 175 26.0324 135.660 4 175 25.7754 135.606 175 899 450 20 16
1958263N13148 1958 84 WP MM IDA 1958-09-25 12:00:00 TS 26.6000 135.717 910 tokyo main 679 607 OOO______OOO__ jtwc_wp WP151958 27.0000 136.000 175 5 25.8000 135.300 9 910 0 0 0 25.8000 135.000 6 184 912 27.0000 136.000 TC 175 27.0000 136.000 4 175 27.0000 136.000 175 901 420 22 13
1958263N13148 1958 84 WP MM IDA 1958-09-25 15:00:00 TS 27.6784 135.941 main 599 525 PPP______PPP__ WP151958 28.1871 136.160 167 5 26.9484 135.869 9 917 0 0 26.5449 135.092 6 174 917 28.1871 136.160 TC 167 28.0161 136.209 4 163 28.1871 136.160 167 912 420 22 10
1958263N13148 1958 84 WP MM IDA 1958-09-25 18:00:00 TS 28.7771 136.168 925 tokyo main 514 405 OOO______OPO__ jtwc_wp WP151958 29.3000 136.300 160 5 28.2000 136.400 9 925 0 0 0 27.5000 135.300 6 165 923 29.3000 136.300 TC 160 29.0628 136.410 4 152 29.3000 136.300 160 923 420 22 12
1958263N13148 1958 84 WP MM IDA 1958-09-25 21:00:00 TS 29.8332 136.442 main 405 304 PPP______PPP__ WP151958 30.2449 136.605 145 5 29.3143 136.519 9 930 0 0 28.8473 135.660 6 155 929 30.2449 136.605 TC 145 30.1032 136.657 4 141 30.2449 136.605 145 929 450 22 15
1958263N13148 1958 84 WP MM IDA 1958-09-26 00:00:00 TS 30.8500 136.800 935 tokyo main 294 221 OOO______OOO__ jtwc_wp WP151958 31.1000 137.000 130 4 30.4000 136.600 9 935 0 0 0 30.3000 136.200 6 145 935 31.1000 137.000 TC 130 31.1000 137.000 4 130 31.1000 137.000 130 935 480 21 19
1958263N13148 1958 84 WP MM IDA 1958-09-26 03:00:00 TS 31.8309 137.251 main 226 187 PPP______PPP__ WP151958 31.9568 137.385 125 4 31.5296 136.953 9 940 0 0 31.5604 136.919 6 135 940 31.9568 137.385 TC 125 32.0248 137.481 4 115 31.9568 137.385 125 938 450 21 24
1958263N13148 1958 84 WP MM IDA 1958-09-26 06:00:00 TS 32.7592 137.819 945 tokyo main 186 114 OOO______OPO__ jtwc_wp WP151958 32.8000 137.900 120 4 32.6000 137.500 9 945 0 0 0 32.7000 137.700 6 126 945 32.8000 137.900 TC 120 32.8872 138.080 4 100 32.8000 137.900 120 942 420 21 31
1958263N13148 1958 84 WP MM IDA 1958-09-26 09:00:00 TS 33.6183 138.550 main 112 35 PPP______PPP__ WP151958 33.6062 138.692 95 2 33.5004 138.214 9 950 0 0 33.7291 138.353 6 111 952 33.6062 138.692 TC 95 33.7059 138.765 4 85 33.6062 138.692 95 943 420 22 35
1958263N13148 1958 84 WP MM IDA 1958-09-26 12:00:00 TS 34.5200 139.300 955 tokyo main 35 0 OOO______OOO__ jtwc_wp WP151958 34.5000 139.500 70 1 34.4000 139.000 9 955 0 0 0 34.7000 139.000 5 97 960 34.5000 139.500 TC 70 34.5000 139.500 4 70 34.5000 139.500 70 945 420 23 28
1958263N13148 1958 84 WP MM IDA 1958-09-26 15:00:00 TS 35.6485 139.886 main 0 0 PPP______P_P__ WP151958 35.7235 140.008 70 1 35.4692 139.695 9 967 0 0 35.7073 139.736 5 87 968 35.7235 140.008 TC 70 4 35.5893 140.076 70 947 450 24 23
1958263N13148 1958 84 WP MM IDA 1958-09-26 18:00:00 TS 36.7294 140.476 980 tokyo main 0 0 OOO______O_O__ jtwc_wp WP151958 36.8000 140.500 70 1 36.6000 140.400 9 980 0 0 0 36.7000 140.500 4 77 976 36.8000 140.500 TC 70 4 36.8000 140.500 70 950 480 22 31
1958263N13148 1958 84 WP MM IDA 1958-09-26 21:00:00 TS 37.4922 141.295 main 26 26 PPP______P____ WP151958 37.2484 141.268 65 1 37.7762 141.300 9 985 0 0 37.6957 141.345 4 72 978 37.2484 141.268 TC 65 4 18 41
1958263N13148 1958 84 WP MM IDA 1958-09-27 00:00:00 MX 38.1000 142.000 990 tokyo main 48 48 OOO______O____ jtwc_wp WP151958 37.5000 142.000 60 0 38.8000 142.000 6 990 0 0 0 38.6000 142.000 4 68 980 37.5000 142.000 TC 60 14 35
1958263N13148 1958 84 WP MM IDA 1958-09-27 03:00:00 MX 38.6592 142.314 main 54 40 PPP______P____ WP151958 37.8943 142.462 55 0 39.4815 142.117 6 990 0 0 39.3666 142.216 4 58 985 37.8943 142.462 TC 55 12 17
1958263N13148 1958 84 WP MM IDA 1958-09-27 06:00:00 MX 39.2500 142.450 990 tokyo main 40 34 OOO______O____ jtwc_wp WP151958 38.5000 142.800 50 0 40.0000 142.000 6 990 0 0 0 40.0000 142.200 3 48 990 38.5000 142.800 TC 50 14 8
1958263N13148 1958 84 WP MM IDA 1958-09-27 09:00:00 MX 40.0349 142.581 main 55 55 PPP______P____ WP151958 39.5191 143.099 40 0 40.5713 141.918 6 990 0 0 40.5300 142.208 3 48 990 39.5191 143.099 TC 40 16 8
1958263N13148 1958 84 WP MM IDA 1958-09-27 12:00:00 MX 40.8571 142.729 990 tokyo main 100 45 OOO______O____ jtwc_wp WP151958 40.6000 143.500 30 -1 41.1000 142.100 6 990 0 0 0 41.0000 142.200 9 48 990 40.6000 143.500 TC 30 15 14
1958263N13148 1958 84 WP MM IDA 1958-09-27 15:00:00 MX 41.4836 143.073 main 45 13 PPP______P____ WP151958 41.3993 144.164 27 -1 41.5523 142.916 6 991 0 0 41.4992 142.140 9 43 991 41.3993 144.164 TC 27 13 26
1958263N13148 1958 84 WP MM IDA 1958-09-27 18:00:00 MX 42.0000 143.480 992 tokyo main 16 16 OOO______O____ jtwc_wp WP151958 42.0000 145.000 25 -1 42.0000 143.900 6 992 0 0 0 42.0000 142.300 9 38 992 42.0000 145.000 TC 25 12 24
1958263N13148 1958 84 WP MM IDA 1958-09-27 21:00:00 ET 42.5658 143.732 main 11 0 _PP___________ WP151958 -1 42.5714 144.553 6 992 0 0 42.5602 142.912 9 33 992 TC 13 34
1958263N13148 1958 84 WP MM IDA 1958-09-28 00:00:00 ET 43.0500 144.450 992 tokyo main 0 0 _OO___________ -1 43.1000 145.100 6 992 0 0 0 43.0000 143.800 9 29 992 13 53
1958263N13148 1958 84 WP MM IDA 1958-09-28 03:00:00 ET 43.3426 145.148 main 0 0 _PP___________ -1 43.5112 145.605 6 992 0 0 43.1741 144.692 9 29 992 12 70
1958263N13148 1958 84 WP MM IDA 1958-09-28 06:00:00 ET 43.4500 145.950 992 tokyo main 39 34 _OO___________ -1 43.7000 146.200 6 992 0 0 0 43.2000 145.700 9 29 992 13 89
1958263N13148 1958 84 WP MM IDA 1958-09-28 09:00:00 ET 43.3721 146.922 main 104 104 _PP___________ -1 43.5525 147.036 6 994 0 0 43.1917 146.807 9 29 994 15 98
1958263N13148 1958 84 WP MM IDA 1958-09-28 12:00:00 ET 43.2429 148.000 996 tokyo main 165 165 _OO___________ -1 43.3000 148.000 6 996 0 0 0 43.2000 148.000 9 29 996 16 93
1958263N13148 1958 84 WP MM IDA 1958-09-28 15:00:00 ET 43.2924 149.129 main 205 205 _PP___________ -1 43.1965 148.995 6 998 0 0 43.3403 149.196 9 26 998 17 84
1958263N13148 1958 84 WP MM IDA 1958-09-28 18:00:00 ET 43.4250 150.375 1000 tokyo main 246 243 _OO___________ -1 43.2000 150.000 6 1000 0 0 0 43.5000 150.500 9 23 1000 21 82
1958263N13148 1958 84 WP MM IDA 1958-09-28 21:00:00 ET 43.5824 151.956 main 286 286 __P___________ -1 6 0 0 43.5824 151.956 9 1001 23 86
1958263N13148 1958 84 WP MM IDA 1958-09-29 00:00:00 ET 43.6000 153.500 main 366 __O___________ -1 43.6000 153.500 9 1002 22 89

デジタル台風データ・検索

IBTrACS Databaseについて

本データベースは、米国NOAAが公開する1842年以降の世界の熱帯低気圧のベストトラックデータアーカイブInternational Best Track Archive for Climate Stewardship (IBTrACS)を、ウェブで閲覧しやすい形式に変換したものです。

最終更新日:2021-10-21